createdAt,value
2019-02-08T00:01:52.517Z,8.60
2019-02-08T00:04:33.099Z,8.60
2019-02-08T00:07:17.123Z,8.60
2019-02-08T00:09:57.994Z,8.60
2019-02-08T00:12:38.492Z,8.60
2019-02-08T00:18:02.512Z,8.50
2019-02-08T00:20:31.039Z,8.50
2019-02-08T00:23:26.363Z,8.60
2019-02-08T00:26:08.470Z,8.60
2019-02-08T00:28:56.313Z,8.70
2019-02-08T00:31:45.831Z,8.10
2019-02-08T00:34:33.599Z,8.80
2019-02-08T00:37:21.396Z,8.80
2019-02-08T00:40:29.893Z,8.70
2019-02-08T00:43:19.408Z,8.70
2019-02-08T00:46:07.299Z,8.70
2019-02-08T00:48:55.079Z,8.70
2019-02-08T00:51:42.950Z,8.70
2019-02-08T00:54:30.762Z,8.70
2019-02-08T00:57:11.739Z,8.60
2019-02-08T00:59:52.167Z,8.70
2019-02-08T01:02:32.990Z,8.70
2019-02-08T01:05:13.820Z,8.80
2019-02-08T01:07:54.412Z,8.70
2019-02-08T01:10:35.223Z,8.60
2019-02-08T01:13:16.284Z,8.60
2019-02-08T01:15:57.212Z,8.70
2019-02-08T01:18:37.487Z,8.60
2019-02-08T01:21:06.435Z,8.70
2019-02-08T01:23:54.231Z,8.70
2019-02-08T01:26:22.662Z,8.70
2019-02-08T01:29:10.452Z,8.80
2019-02-08T01:31:58.299Z,8.70
2019-02-08T01:34:46.095Z,8.70
2019-02-08T01:37:33.895Z,8.70
2019-02-08T01:40:02.600Z,8.70
2019-02-08T01:42:50.454Z,8.80
2019-02-08T01:45:38.291Z,8.80
2019-02-08T01:48:26.085Z,8.90
2019-02-08T01:51:13.856Z,8.90
2019-02-08T01:54:01.647Z,8.80
2019-02-08T01:56:42.031Z,8.80
2019-02-08T01:59:22.811Z,8.80
2019-02-08T02:02:03.048Z,8.90
2019-02-08T02:04:43.624Z,9.00
2019-02-08T02:10:07.017Z,9.00
2019-02-08T02:12:47.561Z,8.90
2019-02-08T02:15:31.766Z,8.90
2019-02-08T02:18:12.141Z,8.90
2019-02-08T02:20:52.941Z,8.90
2019-02-08T02:23:33.655Z,8.80
2019-02-08T02:26:14.623Z,9.00
2019-02-08T02:28:55.314Z,8.80
2019-02-08T02:31:35.874Z,8.80
2019-02-08T02:34:16.553Z,8.70
2019-02-08T02:36:57.200Z,8.70
2019-02-08T02:39:37.986Z,8.70
2019-02-08T02:42:18.894Z,8.70
2019-02-08T02:44:59.457Z,8.60
2019-02-08T02:47:40.184Z,8.60
2019-02-08T02:50:20.868Z,8.60
2019-02-08T02:53:01.730Z,8.60
2019-02-08T02:55:42.339Z,8.60
2019-02-08T02:58:22.807Z,8.60
2019-02-08T03:01:03.795Z,8.60
2019-02-08T03:03:44.287Z,8.70
2019-02-08T03:06:25.277Z,8.60
2019-02-08T03:09:06.290Z,8.70
2019-02-08T03:11:47.189Z,8.60
2019-02-08T03:14:27.681Z,8.60
2019-02-08T03:17:08.415Z,8.60
2019-02-08T03:19:49.361Z,8.60
2019-02-08T03:22:29.837Z,8.50
2019-02-08T03:25:10.410Z,8.50
2019-02-08T03:27:51.276Z,8.50
2019-02-08T03:30:33.367Z,8.60
2019-02-08T03:33:14.412Z,8.70
2019-02-08T03:35:55.184Z,8.70
2019-02-08T03:38:36.000Z,8.60
2019-02-08T03:41:16.735Z,8.60
2019-02-08T03:43:57.897Z,8.50
2019-02-08T03:46:38.789Z,8.50
2019-02-08T03:49:19.903Z,8.60
2019-02-08T03:52:00.548Z,8.60
2019-02-08T03:54:41.258Z,8.60
2019-02-08T03:57:22.137Z,8.50
2019-02-08T04:00:02.818Z,8.50
2019-02-08T04:02:43.202Z,8.40
2019-02-08T04:05:24.193Z,8.30
2019-02-08T04:08:04.611Z,8.30
2019-02-08T04:13:28.627Z,8.40
2019-02-08T04:16:09.451Z,8.30
2019-02-08T04:18:50.006Z,8.30
2019-02-08T04:21:30.793Z,8.40
2019-02-08T04:24:11.687Z,8.40
2019-02-08T04:26:52.787Z,8.50
2019-02-08T04:29:33.492Z,8.60
2019-02-08T04:32:14.463Z,8.60
2019-02-08T04:34:54.914Z,8.50
2019-02-08T04:37:35.487Z,8.40
2019-02-08T04:40:16.114Z,8.40
2019-02-08T04:42:56.966Z,8.40
2019-02-08T04:45:37.477Z,8.40
2019-02-08T04:48:18.365Z,8.50
2019-02-08T04:50:59.186Z,8.50
2019-02-08T04:53:40.160Z,8.60
2019-02-08T04:56:20.622Z,8.60
2019-02-08T04:59:01.339Z,8.60
2019-02-08T05:01:41.999Z,8.70
2019-02-08T05:04:22.726Z,8.60
2019-02-08T05:07:03.652Z,8.60
2019-02-08T05:09:44.267Z,8.60
2019-02-08T05:12:25.137Z,8.70
2019-02-08T05:15:06.055Z,8.70
2019-02-08T05:20:29.904Z,8.60
2019-02-08T05:23:10.769Z,8.60
2019-02-08T05:25:51.452Z,8.60
2019-02-08T05:28:32.438Z,8.60
2019-02-08T05:31:12.676Z,8.70
2019-02-08T05:33:53.495Z,8.70
2019-02-08T05:39:17.639Z,8.90
2019-02-08T05:41:58.700Z,8.80
2019-02-08T05:44:39.570Z,8.70
2019-02-08T05:47:20.706Z,8.70
2019-02-08T05:50:01.111Z,8.70
2019-02-08T05:52:42.170Z,8.70
2019-02-08T05:55:23.301Z,8.70
2019-02-08T05:58:03.605Z,8.50
2019-02-08T06:00:48.811Z,8.50
2019-02-08T06:03:30.118Z,8.50
2019-02-08T06:06:10.856Z,8.50
2019-02-08T06:08:51.356Z,8.50
2019-02-08T06:11:33.031Z,8.60
2019-02-08T06:14:14.688Z,8.50
2019-02-08T06:16:55.988Z,8.50
2019-02-08T06:19:36.720Z,8.50
2019-02-08T06:22:17.823Z,8.30
2019-02-08T06:25:03.449Z,8.30
2019-02-08T06:27:41.046Z,8.20
2019-02-08T06:30:22.159Z,8.30
2019-02-08T06:33:02.603Z,8.30
2019-02-08T06:35:43.286Z,8.30
2019-02-08T06:38:23.813Z,8.30
2019-02-08T06:41:04.464Z,8.30
2019-02-08T06:43:45.003Z,8.20
2019-02-08T06:46:25.337Z,8.20
2019-02-08T06:49:06.000Z,8.20
2019-02-08T06:51:46.766Z,8.20
2019-02-08T06:54:27.196Z,8.20
2019-02-08T06:57:07.912Z,8.20
2019-02-08T06:59:50.642Z,8.30
2019-02-08T07:02:35.640Z,8.30
2019-02-08T07:05:21.479Z,8.30
2019-02-08T07:08:03.638Z,8.30
2019-02-08T07:11:03.558Z,8.40
2019-02-08T07:14:03.756Z,8.30
2019-02-08T07:19:39.975Z,8.30
2019-02-08T07:22:25.090Z,8.30
2019-02-08T07:25:06.963Z,8.50
2019-02-08T07:27:52.514Z,8.60
2019-02-08T07:30:35.190Z,8.80
2019-02-08T07:33:20.479Z,8.90
2019-02-08T07:36:20.765Z,8.40
2019-02-08T07:41:56.409Z,8.90
2019-02-08T07:44:38.939Z,9.00
2019-02-08T07:47:24.415Z,8.80
2019-02-08T07:50:09.922Z,8.70
2019-02-08T07:53:10.068Z,8.70
2019-02-08T07:56:09.987Z,8.70
2019-02-08T07:58:52.159Z,8.60
2019-02-08T08:01:37.859Z,8.80
2019-02-08T08:04:40.417Z,8.80
2019-02-08T08:07:22.036Z,9.00
2019-02-08T08:13:11.864Z,8.90
2019-02-08T08:15:57.332Z,8.90
2019-02-08T08:18:37.879Z,9.00
2019-02-08T08:21:23.207Z,9.10
2019-02-08T08:24:23.188Z,9.20
2019-02-08T08:27:31.855Z,9.20
2019-02-08T08:30:23.099Z,9.30
2019-02-08T08:36:09.031Z,9.60
2019-02-08T08:39:16.153Z,9.50
2019-02-08T08:42:23.239Z,9.60
2019-02-08T08:45:30.355Z,9.60
2019-02-08T08:48:37.473Z,9.50
2019-02-08T08:51:44.587Z,9.40
2019-02-08T08:54:51.782Z,9.30
2019-02-08T08:57:58.924Z,9.20
2019-02-08T09:01:06.067Z,9.10
2019-02-08T09:04:17.610Z,9.00
2019-02-08T09:07:06.942Z,9.10
2019-02-08T09:10:14.084Z,9.10
2019-02-08T09:13:21.173Z,9.20
2019-02-08T09:16:28.295Z,9.20
2019-02-08T09:19:35.435Z,9.10
2019-02-08T09:22:42.610Z,8.80
2019-02-08T09:25:50.153Z,8.80
2019-02-08T09:28:57.234Z,8.80
2019-02-08T09:32:04.360Z,8.80
2019-02-08T09:35:11.641Z,8.80
2019-02-08T09:38:18.944Z,8.80
2019-02-08T09:41:26.082Z,8.80
2019-02-08T09:44:33.338Z,8.80
2019-02-08T09:47:22.798Z,8.80
2019-02-08T09:50:30.226Z,8.70
2019-02-08T09:53:37.383Z,8.80
2019-02-08T09:56:44.498Z,8.90
2019-02-08T09:59:25.353Z,8.90
2019-02-08T10:02:06.185Z,9.00
2019-02-08T10:04:47.002Z,9.20
2019-02-08T10:07:31.900Z,9.20
2019-02-08T10:10:13.857Z,9.20
2019-02-08T10:12:54.508Z,9.20
2019-02-08T10:15:35.397Z,9.20
2019-02-08T10:18:16.561Z,9.20
2019-02-08T10:20:57.958Z,9.20
2019-02-08T10:23:39.507Z,9.20
2019-02-08T10:26:20.130Z,9.20
2019-02-08T10:29:00.975Z,9.20
2019-02-08T10:31:41.551Z,9.40
2019-02-08T10:34:22.552Z,9.40
2019-02-08T10:37:03.506Z,9.40
2019-02-08T10:39:44.150Z,9.50
2019-02-08T10:42:25.002Z,9.70
2019-02-08T10:45:06.036Z,9.80
2019-02-08T10:47:47.122Z,10.00
2019-02-08T10:50:27.763Z,10.20
2019-02-08T10:53:08.397Z,10.30
2019-02-08T10:55:49.394Z,10.40
2019-02-08T10:58:30.427Z,10.30
2019-02-08T11:01:10.750Z,10.40
2019-02-08T11:03:51.698Z,10.60
2019-02-08T11:09:14.939Z,11.00
2019-02-08T11:11:55.764Z,11.10
2019-02-08T11:14:36.279Z,11.20
2019-02-08T11:17:16.911Z,11.50
2019-02-08T11:19:57.955Z,11.30
2019-02-08T11:22:38.812Z,11.20
2019-02-08T11:25:19.534Z,11.30
2019-02-08T11:27:59.967Z,11.40
2019-02-08T11:30:40.858Z,11.50
2019-02-08T11:33:21.605Z,11.60
2019-02-08T11:36:02.291Z,11.60
2019-02-08T11:38:42.978Z,11.40
2019-02-08T11:41:23.596Z,11.30
2019-02-08T11:44:04.455Z,11.10
2019-02-08T11:46:44.942Z,11.00
2019-02-08T11:49:25.747Z,10.90
2019-02-08T11:52:06.919Z,10.80
2019-02-08T11:54:47.647Z,10.80
2019-02-08T11:57:28.184Z,10.80
2019-02-08T12:00:08.904Z,10.80
2019-02-08T12:02:49.662Z,10.90
2019-02-08T12:05:30.437Z,10.90
2019-02-08T12:08:10.931Z,11.10
2019-02-08T12:10:51.643Z,11.20
2019-02-08T12:13:31.969Z,11.20
2019-02-08T12:16:13.238Z,11.20
2019-02-08T12:18:54.201Z,11.40
2019-02-08T12:21:34.739Z,11.30
2019-02-08T12:24:15.655Z,11.30
2019-02-08T12:26:56.414Z,11.30
2019-02-08T12:32:20.569Z,11.60
2019-02-08T12:35:01.231Z,11.50
2019-02-08T12:37:42.019Z,11.50
2019-02-08T12:40:23.049Z,11.50
2019-02-08T12:43:03.648Z,11.50
2019-02-08T12:45:44.233Z,11.60
2019-02-08T12:48:24.948Z,11.00
2019-02-08T12:51:05.693Z,11.80
2019-02-08T12:56:28.692Z,11.90
2019-02-08T12:59:09.620Z,11.90
2019-02-08T13:01:50.374Z,11.90
2019-02-08T13:04:30.779Z,12.00
2019-02-08T13:07:11.651Z,12.10
2019-02-08T13:09:52.332Z,12.40
2019-02-08T13:12:32.953Z,12.80
2019-02-08T13:15:13.794Z,13.10
2019-02-08T13:17:54.165Z,13.20
2019-02-08T13:20:35.103Z,13.10
2019-02-08T13:23:15.771Z,13.10
2019-02-08T13:25:56.331Z,13.30
2019-02-08T13:28:37.091Z,13.20
2019-02-08T13:31:17.749Z,13.40
2019-02-08T13:33:58.270Z,13.40
2019-02-08T13:36:39.482Z,13.40
2019-02-08T13:39:20.028Z,13.30
2019-02-08T13:42:00.957Z,13.30
2019-02-08T13:44:41.995Z,13.30
2019-02-08T13:47:22.918Z,13.40
2019-02-08T13:50:03.867Z,13.50
2019-02-08T13:52:44.802Z,13.40
2019-02-08T13:55:25.790Z,13.20
2019-02-08T13:58:06.659Z,13.10
2019-02-08T14:00:47.536Z,13.10
2019-02-08T14:03:28.291Z,13.00
2019-02-08T14:06:08.919Z,13.00
2019-02-08T14:08:49.383Z,12.90
2019-02-08T14:11:30.232Z,12.80
2019-02-08T14:14:10.801Z,12.70
2019-02-08T14:16:51.294Z,12.60
2019-02-08T14:19:32.167Z,12.60
2019-02-08T14:22:12.636Z,12.40
2019-02-08T14:24:53.005Z,12.40
2019-02-08T14:27:33.815Z,12.40
2019-02-08T14:30:14.642Z,12.40
2019-02-08T14:32:55.981Z,12.40
2019-02-08T14:35:36.298Z,12.30
2019-02-08T14:38:17.209Z,12.30
2019-02-08T14:40:58.115Z,12.40
2019-02-08T14:43:39.042Z,12.40
2019-02-08T14:46:19.606Z,12.40
2019-02-08T14:49:00.558Z,12.40
2019-02-08T14:51:41.001Z,12.50
2019-02-08T14:54:21.875Z,12.50
2019-02-08T14:57:02.496Z,12.40
2019-02-08T14:59:43.099Z,12.40
2019-02-08T15:02:23.705Z,12.40
2019-02-08T15:05:04.691Z,12.40
2019-02-08T15:07:44.989Z,12.30
2019-02-08T15:10:25.727Z,12.30
2019-02-08T15:13:06.191Z,12.40
2019-02-08T15:15:47.081Z,12.30
2019-02-08T15:21:10.075Z,12.30
2019-02-08T15:23:50.531Z,12.40
2019-02-08T15:26:31.236Z,12.50
2019-02-08T15:29:11.534Z,12.50
2019-02-08T15:31:52.475Z,12.50
2019-02-08T15:34:32.888Z,12.50
2019-02-08T15:37:14.131Z,12.40
2019-02-08T15:39:55.128Z,12.40
2019-02-08T15:42:35.745Z,12.30
2019-02-08T15:45:16.478Z,12.30
2019-02-08T15:47:56.824Z,12.30
2019-02-08T15:50:37.799Z,12.40
2019-02-08T15:53:18.579Z,12.20
2019-02-08T15:58:45.548Z,12.20
2019-02-08T16:04:12.103Z,12.10
2019-02-08T16:06:52.402Z,12.10
2019-02-08T16:09:33.325Z,12.10
2019-02-08T16:12:14.184Z,12.10
2019-02-08T16:14:54.850Z,12.00
2019-02-08T16:17:35.452Z,12.00
2019-02-08T16:20:15.909Z,11.90
2019-02-08T16:22:56.711Z,11.80
2019-02-08T16:25:37.002Z,11.70
2019-02-08T16:28:17.522Z,11.70
2019-02-08T16:30:58.452Z,11.70
2019-02-08T16:33:39.471Z,11.80
2019-02-08T16:36:20.207Z,11.70
2019-02-08T16:39:00.879Z,11.70
2019-02-08T16:41:41.453Z,11.60
2019-02-08T16:44:22.388Z,11.60
2019-02-08T16:47:03.242Z,11.60
2019-02-08T16:49:31.786Z,11.60
2019-02-08T16:52:00.285Z,11.50
2019-02-08T16:54:48.238Z,11.60
2019-02-08T16:57:29.315Z,11.50
2019-02-08T17:00:09.927Z,11.50
2019-02-08T17:02:38.400Z,11.50
2019-02-08T17:05:26.846Z,11.40
2019-02-08T17:08:14.643Z,11.50
2019-02-08T17:11:02.492Z,11.50
2019-02-08T17:13:50.285Z,11.50
2019-02-08T17:16:38.055Z,11.40
2019-02-08T17:19:26.102Z,11.40
2019-02-08T17:22:13.879Z,11.40
2019-02-08T17:25:01.670Z,11.30
2019-02-08T17:27:55.145Z,11.10
2019-02-08T17:30:39.292Z,11.10
2019-02-08T17:33:27.234Z,11.10
2019-02-08T17:36:15.011Z,11.20
2019-02-08T17:41:57.725Z,11.20
2019-02-08T17:44:45.537Z,11.10
2019-02-08T17:47:33.323Z,11.00
2019-02-08T17:50:40.449Z,10.90
2019-02-08T17:53:28.288Z,11.00
2019-02-08T17:56:16.111Z,10.90
2019-02-08T17:58:44.756Z,10.90
2019-02-08T18:01:32.519Z,10.90
2019-02-08T18:04:01.196Z,10.80
2019-02-08T18:06:29.759Z,10.70
2019-02-08T18:08:58.206Z,10.70
2019-02-08T18:11:26.650Z,10.70
2019-02-08T18:13:55.098Z,10.70
2019-02-08T18:16:23.631Z,10.70
2019-02-08T18:18:52.142Z,10.60
2019-02-08T18:21:20.615Z,10.70
2019-02-08T18:23:51.382Z,10.70
2019-02-08T18:26:19.280Z,10.70
2019-02-08T18:28:47.906Z,10.80
2019-02-08T18:31:16.358Z,10.90
2019-02-08T18:33:44.840Z,10.70
2019-02-08T18:36:13.888Z,10.70
2019-02-08T18:38:42.318Z,10.70
2019-02-08T18:41:10.769Z,10.70
2019-02-08T18:43:39.281Z,10.70
2019-02-08T18:46:07.816Z,10.70
2019-02-08T18:48:36.280Z,10.70
2019-02-08T18:51:04.977Z,10.50
2019-02-08T18:53:33.433Z,10.40
2019-02-08T18:56:01.901Z,10.30
2019-02-08T18:58:30.409Z,10.30
2019-02-08T19:00:58.853Z,10.40
2019-02-08T19:03:27.305Z,10.40
2019-02-08T19:05:55.758Z,10.40
2019-02-08T19:08:24.752Z,10.40
2019-02-08T19:10:53.376Z,10.40
2019-02-08T19:13:21.934Z,10.50
2019-02-08T19:15:50.487Z,10.60
2019-02-08T19:18:18.990Z,10.60
2019-02-08T19:20:47.602Z,10.70
2019-02-08T19:23:16.124Z,10.70
2019-02-08T19:25:46.397Z,10.80
2019-02-08T19:28:15.537Z,10.70
2019-02-08T19:30:45.248Z,10.50
2019-02-08T19:33:13.795Z,10.50
2019-02-08T19:35:42.311Z,10.50
2019-02-08T19:38:10.933Z,10.50
2019-02-08T19:40:45.188Z,10.60
2019-02-08T19:43:13.851Z,10.60
2019-02-08T19:45:42.563Z,10.60
2019-02-08T19:48:30.546Z,10.60
2019-02-08T19:50:59.272Z,10.60
2019-02-08T19:53:27.866Z,10.60
2019-02-08T19:55:56.338Z,10.50
2019-02-08T19:58:24.903Z,10.50
2019-02-08T20:00:53.723Z,10.50
2019-02-08T20:03:22.494Z,10.40
2019-02-08T20:05:51.129Z,10.50
2019-02-08T20:08:19.715Z,10.50
2019-02-08T20:10:51.321Z,10.60
2019-02-08T20:13:19.817Z,10.60
2019-02-08T20:15:48.343Z,10.60
2019-02-08T20:18:16.880Z,10.70
2019-02-08T20:20:46.476Z,10.60
2019-02-08T20:23:25.752Z,10.60
2019-02-08T20:25:55.384Z,10.60
2019-02-08T20:28:24.063Z,10.60
2019-02-08T20:30:52.703Z,10.60
2019-02-08T20:33:21.316Z,10.50
2019-02-08T20:35:49.838Z,10.50
2019-02-08T20:38:18.383Z,10.40
2019-02-08T20:40:49.434Z,10.40
2019-02-08T20:43:20.732Z,10.40
2019-02-08T20:45:49.482Z,10.40
2019-02-08T20:48:22.404Z,10.30
2019-02-08T20:50:52.402Z,10.20
2019-02-08T20:53:21.625Z,10.20
2019-02-08T20:55:50.297Z,10.20
2019-02-08T20:58:19.000Z,10.20
2019-02-08T21:00:49.882Z,10.20
2019-02-08T21:03:19.082Z,10.10
2019-02-08T21:05:48.248Z,10.10
2019-02-08T21:08:17.635Z,10.20
2019-02-08T21:10:46.141Z,10.20
2019-02-08T21:13:14.849Z,10.20
2019-02-08T21:15:43.526Z,10.10
2019-02-08T21:18:12.240Z,10.20
2019-02-08T21:20:41.217Z,10.20
2019-02-08T21:23:09.907Z,10.20
2019-02-08T21:25:40.453Z,10.20
2019-02-08T21:28:09.461Z,10.10
2019-02-08T21:30:38.025Z,10.10
2019-02-08T21:33:08.143Z,10.10
2019-02-08T21:35:36.833Z,10.10
2019-02-08T21:38:06.822Z,10.10
2019-02-08T21:40:35.632Z,10.10
2019-02-08T21:43:05.427Z,10.00
2019-02-08T21:45:39.249Z,9.90
2019-02-08T21:48:09.032Z,9.90
2019-02-08T21:50:37.622Z,9.90
2019-02-08T21:53:06.584Z,9.90
2019-02-08T21:55:35.186Z,10.00
2019-02-08T21:58:04.289Z,10.00
2019-02-08T22:00:35.232Z,9.90
2019-02-08T22:03:05.152Z,9.90
2019-02-08T22:05:38.879Z,10.00
2019-02-08T22:08:07.456Z,10.00
2019-02-08T22:10:35.927Z,10.10
2019-02-08T22:13:04.947Z,10.10
2019-02-08T22:15:35.529Z,10.10
2019-02-08T22:18:05.221Z,10.10
2019-02-08T22:20:33.892Z,10.20
2019-02-08T22:23:02.358Z,10.10
2019-02-08T22:25:32.032Z,10.10
2019-02-08T22:28:00.481Z,10.00
2019-02-08T22:30:29.278Z,10.00
2019-02-08T22:33:02.989Z,10.00
2019-02-08T22:35:31.528Z,10.00
2019-02-08T22:37:59.979Z,10.00
2019-02-08T22:40:28.455Z,10.10
2019-02-08T22:42:56.909Z,10.10
2019-02-08T22:45:29.705Z,10.10
2019-02-08T22:47:58.300Z,10.10
2019-02-08T22:50:27.509Z,10.20
2019-02-08T22:52:56.398Z,10.10
2019-02-08T22:55:27.531Z,10.10
2019-02-08T22:57:55.956Z,10.10
2019-02-08T23:00:37.722Z,10.00
2019-02-08T23:03:08.453Z,10.00
2019-02-08T23:05:44.993Z,9.90
2019-02-08T23:08:09.087Z,9.90
2019-02-08T23:10:37.982Z,10.00
2019-02-08T23:13:10.797Z,10.00
2019-02-08T23:15:39.648Z,10.00
2019-02-08T23:18:11.170Z,10.00
2019-02-08T23:20:39.782Z,10.00
2019-02-08T23:23:08.749Z,10.00
2019-02-08T23:25:37.360Z,10.00
2019-02-08T23:28:06.615Z,10.10
2019-02-08T23:30:35.299Z,10.10
2019-02-08T23:33:04.067Z,10.10
2019-02-08T23:35:32.587Z,10.00
2019-02-08T23:38:01.278Z,10.00
2019-02-08T23:40:30.094Z,10.00
2019-02-08T23:42:58.681Z,9.90
2019-02-08T23:45:27.446Z,9.80
2019-02-08T23:47:55.870Z,9.80
2019-02-08T23:50:25.188Z,9.80
2019-02-08T23:52:53.849Z,9.80
2019-02-08T23:55:23.545Z,9.70
2019-02-08T23:57:51.974Z,9.80
